Skip Navigation LinksHome page > Weather > Current weather Skip Navigation Links

Current Weather

Phoenix Sky Harbor Intl, Phoenix, Ariz.

For information only: do not use for flight planning or navigation.
Latest weather
Observation time Saturday, September 19, 2020 10:51 PM MST
Local time Saturday, September 19, 2020 11:43 PM MST
Flight conditions Visual Meteorological Conditions
Winds
Wind direction East (100°)
Wind speed 5 mph
Visibility 10 mi.
Sky condition
Ceiling unlimited
Sky clear
Temperature 88°F
Dewpoint 47°F
Altimeter 29.79 in.Hg
Pressure change last 3 hours-0.03 in.Hg
Pressure rising more slowly
Derived measurements
Relative humidity 24%
Heat index 88°F
Density altitude 3284 ft.
Sea-level pressure 29.72 in.Hg
Climate data
Temperature minimum, last 6 hours 87°F
Temperature maximum, last 6 hours 104°F
Remarks
Automated weather observing station with precipitation discriminator.
METAR KPHX 200551Z 10004KT 10SM CLR 31/08 A2979 RMK AO2 SLP066 T03110083 10400 20306 51009

Settings

Location code

InnerDrive.Weather 4.0.6770.0 Release CLR 4.0.30319.42000
Copyright ©2018 Inner Drive Technology. All rights reserved. Portions Copyright ©1986-2018 David Braverman.

Find weather

Site navigation


Skip Navigation Links

Place info

Page info

PayPal - The safer, easier way to pay online!

Return home.

Copyright ©2020 Inner Drive Technology. Purveyors of fine, hand-crafted computer software. Page printed 2020-09-20T06:43:16 UTC.